createdAt,value
2023-03-30T00:01:12.261Z,9.04
2023-03-30T00:03:43.476Z,8.99
2023-03-30T00:06:13.376Z,8.98
2023-03-30T00:08:40.347Z,9.03
2023-03-30T00:11:17.558Z,9.04
2023-03-30T00:13:45.315Z,9.10
2023-03-30T00:16:14.299Z,9.10
2023-03-30T00:18:41.662Z,9.08
2023-03-30T00:21:12.074Z,9.01
2023-03-30T00:23:40.227Z,9.20
2023-03-30T00:26:09.041Z,9.14
2023-03-30T00:28:36.345Z,9.29
2023-03-30T00:31:03.497Z,9.21
2023-03-30T00:33:44.715Z,9.26
2023-03-30T00:36:14.021Z,9.24
2023-03-30T00:38:41.370Z,9.21
2023-03-30T00:41:09.697Z,9.25
2023-03-30T00:44:02.081Z,9.22
2023-03-30T00:46:31.675Z,9.20
2023-03-30T00:49:05.576Z,9.21
2023-03-30T00:51:38.338Z,9.20
2023-03-30T00:54:18.592Z,9.16
2023-03-30T00:56:46.223Z,9.26
2023-03-30T00:59:13.632Z,9.22
2023-03-30T01:01:41.986Z,9.14
2023-03-30T01:04:10.251Z,9.12
2023-03-30T01:06:40.598Z,9.11
2023-03-30T01:09:08.918Z,9.11
2023-03-30T01:11:35.990Z,9.13
2023-03-30T01:14:06.526Z,9.13
2023-03-30T01:16:36.511Z,9.11
2023-03-30T01:19:43.920Z,9.12
2023-03-30T01:22:50.403Z,9.18
2023-03-30T01:25:57.692Z,9.20
2023-03-30T01:28:50.375Z,9.23
2023-03-30T01:31:35.841Z,9.20
2023-03-30T01:34:20.881Z,9.18
2023-03-30T01:37:13.365Z,9.36
2023-03-30T01:39:45.344Z,9.05
2023-03-30T01:42:46.581Z,9.01
2023-03-30T01:45:19.976Z,9.02
2023-03-30T01:48:19.506Z,8.97
2023-03-30T01:50:52.941Z,8.86
2023-03-30T01:53:31.440Z,8.93
2023-03-30T01:56:06.970Z,8.92
2023-03-30T01:58:47.434Z,8.91
2023-03-30T02:01:18.234Z,8.94
2023-03-30T02:03:49.784Z,8.94
2023-03-30T02:06:24.869Z,8.87
2023-03-30T02:08:54.877Z,8.78
2023-03-30T02:11:24.519Z,8.97
2023-03-30T02:13:53.898Z,9.03
2023-03-30T02:16:29.329Z,9.12
2023-03-30T02:18:58.015Z,9.20
2023-03-30T02:21:26.118Z,9.10
2023-03-30T02:23:56.136Z,9.08
2023-03-30T02:26:23.504Z,8.94
2023-03-30T02:28:52.352Z,8.94
2023-03-30T02:31:19.667Z,9.02
2023-03-30T02:34:02.899Z,9.04
2023-03-30T02:36:38.716Z,9.10
2023-03-30T02:39:31.567Z,9.10
2023-03-30T02:42:20.517Z,9.03
2023-03-30T02:45:19.131Z,9.10
2023-03-30T02:48:06.220Z,9.08
2023-03-30T02:50:51.921Z,9.01
2023-03-30T02:53:49.507Z,8.97
2023-03-30T02:56:42.392Z,8.89
2023-03-30T02:59:14.345Z,8.95
2023-03-30T03:02:04.743Z,9.03
2023-03-30T03:04:34.302Z,8.89
2023-03-30T03:07:02.801Z,8.90
2023-03-30T03:09:30.242Z,8.85
2023-03-30T03:11:57.122Z,8.78
2023-03-30T03:14:26.747Z,8.67
2023-03-30T03:16:55.137Z,8.66
2023-03-30T03:19:21.973Z,8.51
2023-03-30T03:21:49.164Z,8.29
2023-03-30T03:24:17.592Z,8.42
2023-03-30T03:26:44.490Z,8.32
2023-03-30T03:29:11.461Z,8.23
2023-03-30T03:31:38.372Z,8.16
2023-03-30T03:34:05.345Z,8.18
2023-03-30T03:36:33.051Z,8.32
2023-03-30T03:38:59.910Z,8.41
2023-03-30T03:41:26.792Z,8.39
2023-03-30T03:43:53.677Z,8.41
2023-03-30T03:46:20.757Z,8.47
2023-03-30T03:48:47.599Z,8.48
2023-03-30T03:51:14.672Z,8.51
2023-03-30T03:53:41.845Z,8.65
2023-03-30T03:56:08.879Z,8.56
2023-03-30T03:58:35.997Z,8.64
2023-03-30T04:01:03.664Z,8.65
2023-03-30T04:03:30.855Z,8.67
2023-03-30T04:06:02.675Z,8.79
2023-03-30T04:08:29.806Z,8.77
2023-03-30T04:10:56.822Z,8.73
2023-03-30T04:13:23.623Z,8.67
2023-03-30T04:15:50.761Z,8.79
2023-03-30T04:18:20.550Z,8.97
2023-03-30T04:20:49.686Z,8.91
2023-03-30T04:23:22.110Z,8.87
2023-03-30T04:25:49.206Z,8.84
2023-03-30T04:28:16.135Z,8.73
2023-03-30T04:30:45.830Z,8.62
2023-03-30T04:33:14.877Z,8.73
2023-03-30T04:35:41.758Z,8.71
2023-03-30T04:38:08.792Z,8.80
2023-03-30T04:40:35.773Z,8.82
2023-03-30T04:43:04.120Z,8.67
2023-03-30T04:45:31.547Z,8.65
2023-03-30T04:48:01.587Z,8.64
2023-03-30T04:50:28.378Z,8.71
2023-03-30T04:52:55.152Z,8.63
2023-03-30T04:55:22.198Z,8.70
2023-03-30T04:57:48.927Z,8.69
2023-03-30T05:00:16.467Z,8.68
2023-03-30T05:02:43.439Z,8.64
2023-03-30T05:05:10.684Z,8.73
2023-03-30T05:07:37.586Z,8.81
2023-03-30T05:10:08.098Z,8.84
2023-03-30T05:12:34.885Z,8.87
2023-03-30T05:15:01.834Z,8.74
2023-03-30T05:17:28.808Z,8.86
2023-03-30T05:19:56.553Z,8.90
2023-03-30T05:22:23.483Z,8.91
2023-03-30T05:24:52.361Z,8.95
2023-03-30T05:27:19.785Z,9.05
2023-03-30T05:29:46.709Z,9.08
2023-03-30T05:32:13.648Z,9.08
2023-03-30T05:34:40.432Z,9.15
2023-03-30T05:37:07.521Z,9.23
2023-03-30T05:39:34.333Z,9.30
2023-03-30T05:42:01.861Z,9.31
2023-03-30T05:44:29.871Z,9.27
2023-03-30T05:46:56.662Z,9.21
2023-03-30T05:49:23.756Z,9.25
2023-03-30T05:51:51.141Z,9.28
2023-03-30T05:54:18.142Z,9.33
2023-03-30T05:56:44.945Z,9.42
2023-03-30T05:59:13.101Z,9.63
2023-03-30T06:01:40.286Z,9.74
2023-03-30T06:04:08.284Z,9.74
2023-03-30T06:06:35.405Z,9.89
2023-03-30T06:09:03.138Z,10.00
2023-03-30T06:11:30.434Z,10.06
2023-03-30T06:13:57.480Z,10.04
2023-03-30T06:16:24.733Z,10.24
2023-03-30T06:18:52.523Z,10.42
2023-03-30T06:21:19.467Z,10.67
2023-03-30T06:23:46.595Z,10.78
2023-03-30T06:26:13.815Z,10.58
2023-03-30T06:28:41.576Z,10.63
2023-03-30T06:31:12.425Z,11.42
2023-03-30T06:33:41.721Z,11.59
2023-03-30T06:36:14.094Z,12.02
2023-03-30T06:38:41.480Z,12.25
2023-03-30T06:41:08.570Z,11.77
2023-03-30T06:43:35.565Z,11.75
2023-03-30T06:46:02.618Z,11.78
2023-03-30T06:48:30.147Z,12.28
2023-03-30T06:50:57.203Z,12.87
2023-03-30T06:53:24.656Z,13.33
2023-03-30T06:55:53.692Z,13.13
2023-03-30T06:58:20.911Z,12.86
2023-03-30T07:00:49.332Z,12.97
2023-03-30T07:03:19.984Z,13.16
2023-03-30T07:05:50.998Z,12.75
2023-03-30T07:08:19.134Z,12.58
2023-03-30T07:10:47.478Z,12.54
2023-03-30T07:13:14.731Z,12.55
2023-03-30T07:15:42.074Z,12.66
2023-03-30T07:18:09.336Z,12.55
2023-03-30T07:20:36.671Z,12.19
2023-03-30T07:23:04.018Z,12.28
2023-03-30T07:25:31.996Z,12.21
2023-03-30T07:27:58.870Z,12.08
2023-03-30T07:30:26.429Z,11.97
2023-03-30T07:32:55.556Z,12.31
2023-03-30T07:35:24.600Z,12.86
2023-03-30T07:37:51.913Z,12.97
2023-03-30T07:40:20.187Z,13.11
2023-03-30T07:42:48.328Z,13.74
2023-03-30T07:45:16.433Z,14.34
2023-03-30T07:47:43.746Z,15.12
2023-03-30T07:50:10.844Z,16.50
2023-03-30T07:52:38.177Z,17.43
2023-03-30T07:55:05.561Z,16.88
2023-03-30T07:57:32.898Z,16.03
2023-03-30T07:59:59.861Z,15.25
2023-03-30T08:02:27.441Z,15.16
2023-03-30T08:04:54.573Z,14.61
2023-03-30T08:07:21.731Z,14.01
2023-03-30T08:09:48.946Z,13.63
2023-03-30T08:12:16.126Z,13.35
2023-03-30T08:14:43.023Z,13.65
2023-03-30T08:17:09.882Z,13.50
2023-03-30T08:19:39.584Z,13.49
2023-03-30T08:22:06.358Z,13.72
2023-03-30T08:24:33.355Z,14.37
2023-03-30T08:27:00.186Z,14.55
2023-03-30T08:29:27.075Z,14.92
2023-03-30T08:31:54.022Z,15.65
2023-03-30T08:34:21.024Z,15.43
2023-03-30T08:36:47.955Z,15.29
2023-03-30T08:39:15.763Z,15.76
2023-03-30T08:42:06.395Z,20.21
2023-03-30T08:44:43.123Z,22.77
2023-03-30T08:47:15.660Z,26.08
2023-03-30T08:50:00.414Z,28.56
2023-03-30T08:52:27.495Z,31.11
2023-03-30T08:54:55.150Z,30.76
2023-03-30T08:57:51.660Z,28.97
2023-03-30T09:00:38.705Z,26.44
2023-03-30T09:03:24.245Z,24.98
2023-03-30T09:06:08.031Z,21.50
2023-03-30T09:08:35.170Z,18.73
2023-03-30T09:11:07.393Z,18.03
2023-03-30T09:13:38.063Z,18.81
2023-03-30T09:16:30.087Z,21.23
2023-03-30T09:18:59.398Z,20.87
2023-03-30T09:21:29.558Z,22.91
2023-03-30T09:23:59.247Z,22.27
2023-03-30T09:26:50.485Z,21.17
2023-03-30T09:29:31.808Z,19.38
2023-03-30T09:32:06.044Z,18.18
2023-03-30T09:35:04.706Z,17.01
2023-03-30T09:37:31.725Z,15.83
2023-03-30T09:39:59.486Z,15.11
2023-03-30T09:42:52.251Z,14.72
2023-03-30T09:45:29.023Z,14.13
2023-03-30T09:47:57.217Z,14.02
2023-03-30T09:50:27.909Z,14.54
2023-03-30T09:53:04.060Z,16.53
2023-03-30T09:55:32.593Z,17.26
2023-03-30T09:58:21.481Z,16.99
2023-03-30T10:01:04.011Z,17.34
2023-03-30T10:03:31.065Z,17.46
2023-03-30T10:06:09.650Z,17.46
2023-03-30T10:08:43.383Z,17.23
2023-03-30T10:11:10.658Z,18.54
2023-03-30T10:13:42.102Z,23.21
2023-03-30T10:16:29.667Z,26.55
2023-03-30T10:19:01.676Z,28.40
2023-03-30T10:21:47.846Z,33.12
2023-03-30T10:24:14.741Z,32.35
2023-03-30T10:26:47.025Z,30.90
2023-03-30T10:29:18.548Z,32.01
2023-03-30T10:31:48.546Z,31.10
2023-03-30T10:34:32.418Z,24.95
2023-03-30T10:36:59.594Z,24.24
2023-03-30T10:39:29.982Z,22.63
2023-03-30T10:42:00.056Z,22.48
2023-03-30T10:44:46.497Z,21.52
2023-03-30T10:47:46.546Z,21.80
2023-03-30T10:50:43.559Z,20.58
2023-03-30T10:53:16.088Z,20.46
2023-03-30T10:56:09.419Z,22.73
2023-03-30T10:59:03.935Z,24.06
2023-03-30T11:01:37.168Z,22.27
2023-03-30T11:04:22.523Z,25.54
2023-03-30T11:06:53.542Z,29.84
2023-03-30T11:09:28.260Z,31.17
2023-03-30T11:12:11.598Z,26.12
2023-03-30T11:15:04.459Z,22.56
2023-03-30T11:17:43.900Z,19.96
2023-03-30T11:20:23.840Z,18.10
2023-03-30T11:23:02.155Z,17.71
2023-03-30T11:25:54.067Z,16.98
2023-03-30T11:28:26.639Z,16.80
2023-03-30T11:31:00.127Z,16.69
2023-03-30T11:33:45.034Z,16.48
2023-03-30T11:36:19.725Z,16.01
2023-03-30T11:38:54.963Z,16.43
2023-03-30T11:41:31.717Z,16.30
2023-03-30T11:43:58.705Z,16.63
2023-03-30T11:46:28.843Z,15.96
2023-03-30T11:48:56.182Z,15.41
2023-03-30T11:51:45.077Z,14.78
2023-03-30T11:55:02.425Z,13.60
2023-03-30T11:57:36.179Z,13.53
2023-03-30T12:00:15.177Z,14.17
2023-03-30T12:03:14.144Z,15.30
2023-03-30T12:05:53.554Z,16.14
2023-03-30T12:08:44.223Z,15.90
2023-03-30T12:11:24.060Z,15.60
2023-03-30T12:13:52.383Z,15.18
2023-03-30T12:16:32.079Z,14.97
2023-03-30T12:19:11.627Z,15.28
2023-03-30T12:21:58.287Z,15.85
2023-03-30T12:24:38.688Z,16.80
2023-03-30T12:27:07.485Z,16.60
2023-03-30T12:30:02.326Z,16.80
2023-03-30T12:32:31.392Z,18.67
2023-03-30T12:34:58.738Z,19.03
2023-03-30T12:37:38.246Z,17.87
2023-03-30T12:40:19.285Z,17.30
2023-03-30T12:43:11.218Z,17.57
2023-03-30T12:46:03.036Z,18.20
2023-03-30T12:49:03.615Z,18.11
2023-03-30T12:51:47.158Z,18.38
2023-03-30T12:54:43.318Z,18.99
2023-03-30T12:57:35.340Z,19.23
2023-03-30T13:00:41.756Z,18.25
2023-03-30T13:03:18.543Z,16.84
2023-03-30T13:05:51.602Z,16.47
2023-03-30T13:08:22.068Z,15.91
2023-03-30T13:10:49.067Z,16.24
2023-03-30T13:13:24.254Z,16.40
2023-03-30T13:15:55.918Z,16.28
2023-03-30T13:18:35.769Z,16.80
2023-03-30T13:21:17.765Z,17.73
2023-03-30T13:23:59.898Z,17.53
2023-03-30T13:26:34.872Z,17.24
2023-03-30T13:29:16.062Z,16.97
2023-03-30T13:32:21.068Z,17.09
2023-03-30T13:35:05.979Z,17.13
2023-03-30T13:38:08.371Z,17.53
2023-03-30T13:41:08.975Z,17.83
2023-03-30T13:43:54.233Z,18.02
2023-03-30T13:46:27.504Z,17.35
2023-03-30T13:49:25.132Z,17.18
2023-03-30T13:51:53.251Z,16.83
2023-03-30T13:54:29.283Z,16.90
2023-03-30T13:57:05.030Z,16.52
2023-03-30T13:59:36.446Z,16.46
2023-03-30T14:02:05.479Z,16.63
2023-03-30T14:04:37.375Z,16.71
2023-03-30T14:07:16.287Z,16.51
2023-03-30T14:09:45.423Z,16.17
2023-03-30T14:12:14.147Z,15.90
2023-03-30T14:14:47.243Z,15.77
2023-03-30T14:17:23.919Z,15.58
2023-03-30T14:20:21.219Z,15.94
2023-03-30T14:22:50.534Z,16.01
2023-03-30T14:25:27.417Z,16.16
2023-03-30T14:27:57.284Z,16.21
2023-03-30T14:30:29.709Z,16.32
2023-03-30T14:33:13.330Z,16.67
2023-03-30T14:35:47.111Z,16.32
2023-03-30T14:38:22.325Z,16.42
2023-03-30T14:40:51.937Z,16.79
2023-03-30T14:43:24.777Z,16.90
2023-03-30T14:45:57.452Z,17.08
2023-03-30T14:48:36.915Z,16.46
2023-03-30T14:51:09.923Z,16.32
2023-03-30T14:53:37.105Z,16.42
2023-03-30T14:56:05.295Z,16.73
2023-03-30T14:58:33.572Z,16.32
2023-03-30T15:01:09.180Z,15.59
2023-03-30T15:03:38.196Z,15.58
2023-03-30T15:06:07.470Z,15.30
2023-03-30T15:08:38.992Z,14.80
2023-03-30T15:11:24.509Z,14.92
2023-03-30T15:13:58.083Z,14.52
2023-03-30T15:16:30.312Z,14.31
2023-03-30T15:19:05.425Z,14.44
2023-03-30T15:21:36.384Z,14.37
2023-03-30T15:24:07.389Z,14.17
2023-03-30T15:26:34.848Z,14.12
2023-03-30T15:29:04.611Z,14.09
2023-03-30T15:31:32.024Z,14.46
2023-03-30T15:34:02.283Z,14.75
2023-03-30T15:36:39.649Z,14.99
2023-03-30T15:39:34.305Z,15.46
2023-03-30T15:42:08.098Z,15.23
2023-03-30T15:44:43.227Z,14.83
2023-03-30T15:47:28.593Z,14.89
2023-03-30T15:49:56.280Z,15.04
2023-03-30T15:52:35.048Z,15.07
2023-03-30T15:55:09.181Z,15.10
2023-03-30T15:57:37.864Z,15.23
2023-03-30T16:00:19.889Z,15.21
2023-03-30T16:02:57.977Z,15.21
2023-03-30T16:05:32.126Z,15.17
2023-03-30T16:07:59.499Z,14.96
2023-03-30T16:10:29.206Z,14.65
2023-03-30T16:12:58.383Z,14.91
2023-03-30T16:15:28.350Z,14.91
2023-03-30T16:17:55.714Z,14.47
2023-03-30T16:20:24.213Z,14.37
2023-03-30T16:22:51.626Z,14.42
2023-03-30T16:25:23.220Z,14.29
2023-03-30T16:27:55.755Z,14.41
2023-03-30T16:30:38.713Z,14.79
2023-03-30T16:33:06.029Z,14.86
2023-03-30T16:35:35.747Z,14.59
2023-03-30T16:38:02.623Z,14.39
2023-03-30T16:40:55.242Z,14.14
2023-03-30T16:43:22.466Z,14.24
2023-03-30T16:45:49.617Z,14.04
2023-03-30T16:48:17.234Z,14.06
2023-03-30T16:50:53.461Z,13.88
2023-03-30T16:53:20.911Z,13.71
2023-03-30T16:55:49.252Z,13.49
2023-03-30T16:58:16.639Z,13.44
2023-03-30T17:00:46.632Z,13.28
2023-03-30T17:03:14.406Z,13.09
2023-03-30T17:05:42.699Z,13.09
2023-03-30T17:08:23.122Z,12.89
2023-03-30T17:10:51.645Z,12.89
2023-03-30T17:13:18.919Z,12.92
2023-03-30T17:15:45.909Z,12.87
2023-03-30T17:18:15.318Z,12.91
2023-03-30T17:20:44.973Z,12.92
2023-03-30T17:23:11.879Z,12.91
2023-03-30T17:25:40.052Z,12.75
2023-03-30T17:28:10.404Z,12.41
2023-03-30T17:30:40.940Z,12.01
2023-03-30T17:33:13.026Z,11.76
2023-03-30T17:35:41.146Z,11.74
2023-03-30T17:38:09.442Z,11.68
2023-03-30T17:40:39.057Z,11.77
2023-03-30T17:43:07.599Z,11.69
2023-03-30T17:45:35.732Z,11.68
2023-03-30T17:48:03.936Z,11.71
2023-03-30T17:50:34.036Z,11.65
2023-03-30T17:53:01.350Z,11.80
2023-03-30T17:55:31.096Z,11.76
2023-03-30T17:57:58.088Z,11.77
2023-03-30T18:00:24.947Z,11.85
2023-03-30T18:02:52.839Z,11.95
2023-03-30T18:05:21.657Z,11.84
2023-03-30T18:07:49.073Z,11.83
2023-03-30T18:10:24.788Z,11.35
2023-03-30T18:12:52.581Z,11.21
2023-03-30T18:15:25.390Z,11.16
2023-03-30T18:17:52.919Z,11.16
2023-03-30T18:20:21.493Z,11.20
2023-03-30T18:22:51.063Z,11.15
2023-03-30T18:25:29.735Z,11.15
2023-03-30T18:27:59.634Z,11.06
2023-03-30T18:30:41.037Z,11.03
2023-03-30T18:33:08.379Z,10.96
2023-03-30T18:35:36.807Z,10.87
2023-03-30T18:38:05.275Z,10.80
2023-03-30T18:40:35.290Z,10.81
2023-03-30T18:43:02.283Z,10.84
2023-03-30T18:45:48.750Z,10.97
2023-03-30T18:48:17.928Z,11.12
2023-03-30T18:50:47.136Z,11.15
2023-03-30T18:53:26.001Z,11.10
2023-03-30T18:55:57.513Z,11.15
2023-03-30T18:58:27.599Z,11.13
2023-03-30T19:00:55.364Z,10.79
2023-03-30T19:03:25.465Z,10.74
2023-03-30T19:05:52.852Z,10.79
2023-03-30T19:08:22.045Z,10.81
2023-03-30T19:10:51.333Z,10.96
2023-03-30T19:13:20.149Z,10.95
2023-03-30T19:15:47.955Z,11.02
2023-03-30T19:18:16.240Z,11.01
2023-03-30T19:20:43.994Z,11.00
2023-03-30T19:23:14.020Z,10.96
2023-03-30T19:25:41.910Z,10.94
2023-03-30T19:28:09.611Z,10.85
2023-03-30T19:30:39.558Z,10.81
2023-03-30T19:33:10.442Z,10.65
2023-03-30T19:35:40.172Z,10.71
2023-03-30T19:38:06.920Z,10.61
2023-03-30T19:40:33.836Z,10.40
2023-03-30T19:43:03.316Z,10.39
2023-03-30T19:45:31.947Z,10.39
2023-03-30T19:47:59.205Z,10.36
2023-03-30T19:50:27.982Z,10.32
2023-03-30T19:52:56.612Z,10.43
2023-03-30T19:55:23.563Z,10.49
2023-03-30T19:57:50.443Z,10.39
2023-03-30T20:00:19.212Z,10.37
2023-03-30T20:02:49.924Z,10.44
2023-03-30T20:05:18.214Z,10.51
2023-03-30T20:07:45.669Z,10.46
2023-03-30T20:10:24.752Z,10.34
2023-03-30T20:12:52.655Z,10.26
2023-03-30T20:15:21.205Z,10.16
2023-03-30T20:17:48.387Z,10.29
2023-03-30T20:20:22.962Z,10.34
2023-03-30T20:22:53.659Z,10.38
2023-03-30T20:25:21.965Z,10.17
2023-03-30T20:27:49.697Z,10.30
2023-03-30T20:30:18.155Z,10.24
2023-03-30T20:32:53.039Z,10.25
2023-03-30T20:35:27.583Z,10.30
2023-03-30T20:37:55.639Z,10.30
2023-03-30T20:40:23.303Z,10.42
2023-03-30T20:42:50.333Z,10.30
2023-03-30T20:45:17.875Z,10.30
2023-03-30T20:47:50.321Z,10.28
2023-03-30T20:50:17.266Z,10.22
2023-03-30T20:52:44.190Z,10.24
2023-03-30T20:55:11.176Z,10.27
2023-03-30T20:57:38.953Z,10.34
2023-03-30T21:00:09.735Z,10.29
2023-03-30T21:02:36.542Z,10.31
2023-03-30T21:05:04.205Z,10.33
2023-03-30T21:07:32.356Z,10.33
2023-03-30T21:09:59.226Z,10.38
2023-03-30T21:12:26.525Z,10.35
2023-03-30T21:14:53.736Z,10.16
2023-03-30T21:17:20.640Z,10.50
2023-03-30T21:19:47.421Z,10.41
2023-03-30T21:22:14.262Z,10.39
2023-03-30T21:24:40.966Z,10.38
2023-03-30T21:27:08.079Z,10.36
2023-03-30T21:29:34.911Z,10.29
2023-03-30T21:32:01.822Z,10.27
2023-03-30T21:34:28.793Z,10.06
2023-03-30T21:36:55.768Z,10.08
2023-03-30T21:39:24.078Z,10.14
2023-03-30T21:41:51.170Z,10.19
2023-03-30T21:44:18.012Z,10.24
2023-03-30T21:46:44.999Z,10.24
2023-03-30T21:49:12.872Z,10.24
2023-03-30T21:51:39.769Z,10.24
2023-03-30T21:54:07.984Z,10.19
2023-03-30T21:56:34.838Z,10.23
2023-03-30T21:59:01.840Z,10.28
2023-03-30T22:01:29.028Z,10.24
2023-03-30T22:03:56.180Z,10.22
2023-03-30T22:06:23.841Z,10.24
2023-03-30T22:08:51.036Z,10.36
2023-03-30T22:11:26.271Z,10.47
2023-03-30T22:13:55.489Z,10.63
2023-03-30T22:16:28.480Z,10.59
2023-03-30T22:18:55.895Z,10.59
2023-03-30T22:21:25.980Z,10.52
2023-03-30T22:23:53.100Z,10.55
2023-03-30T22:26:20.125Z,10.47
2023-03-30T22:28:46.992Z,10.49
2023-03-30T22:31:15.573Z,10.40
2023-03-30T22:33:42.619Z,10.56
2023-03-30T22:36:19.877Z,10.27
2023-03-30T22:38:48.545Z,10.20
2023-03-30T22:41:15.761Z,10.32
2023-03-30T22:43:42.800Z,10.10
2023-03-30T22:46:10.358Z,10.23
2023-03-30T22:48:37.967Z,10.34
2023-03-30T22:51:08.560Z,10.37
2023-03-30T22:53:35.907Z,10.41
2023-03-30T22:56:03.055Z,10.32
2023-03-30T22:58:30.107Z,10.11
2023-03-30T23:01:07.267Z,10.08
2023-03-30T23:03:34.491Z,9.90
2023-03-30T23:06:01.961Z,10.00
2023-03-30T23:08:32.405Z,10.02
2023-03-30T23:11:05.210Z,10.10
2023-03-30T23:13:37.798Z,10.24
2023-03-30T23:16:08.986Z,10.26
2023-03-30T23:18:36.581Z,10.23
2023-03-30T23:21:06.688Z,10.28
2023-03-30T23:23:37.649Z,10.34
2023-03-30T23:26:10.651Z,10.34
2023-03-30T23:28:39.976Z,10.36
2023-03-30T23:31:18.223Z,10.34
2023-03-30T23:33:45.658Z,10.19
2023-03-30T23:36:13.952Z,10.18
2023-03-30T23:38:41.601Z,10.27
2023-03-30T23:41:09.093Z,10.30
2023-03-30T23:43:36.135Z,10.28
2023-03-30T23:46:03.913Z,10.25
2023-03-30T23:48:31.069Z,10.26
2023-03-30T23:50:58.276Z,10.04
2023-03-30T23:53:26.890Z,10.02
2023-03-30T23:55:55.548Z,9.88
2023-03-30T23:58:22.729Z,9.82
